sensor_id;sensor_type;location;lat;lon;timestamp;P1;durP1;ratioP1;P2;durP2;ratioP2
77287;SDS011;66345;42.694;23.346;2024-02-21T00:00:45;7.78;;;4.07;;
77287;SDS011;66345;42.694;23.346;2024-02-21T00:03:11;8.40;;;3.65;;
77287;SDS011;66345;42.694;23.346;2024-02-21T00:05:37;7.40;;;3.33;;
77287;SDS011;66345;42.694;23.346;2024-02-21T00:08:02;8.27;;;3.80;;
77287;SDS011;66345;42.694;23.346;2024-02-21T00:10:28;8.70;;;4.18;;
77287;SDS011;66345;42.694;23.346;2024-02-21T00:12:54;8.43;;;4.40;;
77287;SDS011;66345;42.694;23.346;2024-02-21T00:15:19;9.15;;;3.63;;
77287;SDS011;66345;42.694;23.346;2024-02-21T00:17:46;8.90;;;3.67;;
77287;SDS011;66345;42.694;23.346;2024-02-21T00:20:11;7.50;;;3.27;;
77287;SDS011;66345;42.694;23.346;2024-02-21T00:22:37;7.77;;;3.60;;
77287;SDS011;66345;42.694;23.346;2024-02-21T00:25:03;9.85;;;3.90;;
77287;SDS011;66345;42.694;23.346;2024-02-21T00:27:28;6.77;;;3.30;;
77287;SDS011;66345;42.694;23.346;2024-02-21T00:29:54;7.32;;;3.05;;
77287;SDS011;66345;42.694;23.346;2024-02-21T00:32:19;7.10;;;3.60;;
77287;SDS011;66345;42.694;23.346;2024-02-21T00:34:45;7.70;;;3.37;;
77287;SDS011;66345;42.694;23.346;2024-02-21T00:37:11;8.15;;;3.42;;
77287;SDS011;66345;42.694;23.346;2024-02-21T00:39:36;7.40;;;3.87;;
77287;SDS011;66345;42.694;23.346;2024-02-21T00:42:02;7.33;;;2.87;;
77287;SDS011;66345;42.694;23.346;2024-02-21T00:44:28;6.75;;;2.75;;
77287;SDS011;66345;42.694;23.346;2024-02-21T00:46:53;7.07;;;3.43;;
77287;SDS011;66345;42.694;23.346;2024-02-21T00:49:19;5.60;;;2.90;;
77287;SDS011;66345;42.694;23.346;2024-02-21T00:51:44;6.53;;;3.07;;
77287;SDS011;66345;42.694;23.346;2024-02-21T00:54:10;6.87;;;3.10;;
77287;SDS011;66345;42.694;23.346;2024-02-21T00:56:35;6.93;;;3.00;;
77287;SDS011;66345;42.694;23.346;2024-02-21T00:59:01;6.78;;;3.75;;
77287;SDS011;66345;42.694;23.346;2024-02-21T01:01:26;6.77;;;3.30;;
77287;SDS011;66345;42.694;23.346;2024-02-21T01:03:52;6.93;;;3.10;;
77287;SDS011;66345;42.694;23.346;2024-02-21T01:06:21;6.38;;;2.88;;
77287;SDS011;66345;42.694;23.346;2024-02-21T01:08:47;6.93;;;2.92;;
77287;SDS011;66345;42.694;23.346;2024-02-21T01:11:13;6.32;;;2.85;;
77287;SDS011;66345;42.694;23.346;2024-02-21T01:13:39;7.83;;;3.20;;
77287;SDS011;66345;42.694;23.346;2024-02-21T01:16:05;7.75;;;3.35;;
77287;SDS011;66345;42.694;23.346;2024-02-21T01:18:32;7.28;;;3.17;;
77287;SDS011;66345;42.694;23.346;2024-02-21T01:20:58;6.95;;;3.45;;
77287;SDS011;66345;42.694;23.346;2024-02-21T01:23:24;6.33;;;3.00;;
77287;SDS011;66345;42.694;23.346;2024-02-21T01:25:50;7.80;;;3.37;;
77287;SDS011;66345;42.694;23.346;2024-02-21T01:28:16;7.40;;;3.17;;
77287;SDS011;66345;42.694;23.346;2024-02-21T01:30:41;7.40;;;3.13;;
77287;SDS011;66345;42.694;23.346;2024-02-21T01:33:07;7.53;;;3.33;;
77287;SDS011;66345;42.694;23.346;2024-02-21T01:35:32;8.63;;;3.70;;
77287;SDS011;66345;42.694;23.346;2024-02-21T01:37:59;8.68;;;3.65;;
77287;SDS011;66345;42.694;23.346;2024-02-21T01:40:25;8.87;;;4.20;;
77287;SDS011;66345;42.694;23.346;2024-02-21T01:42:50;12.20;;;5.07;;
77287;SDS011;66345;42.694;23.346;2024-02-21T01:45:18;17.25;;;5.80;;
77287;SDS011;66345;42.694;23.346;2024-02-21T01:47:44;16.40;;;5.83;;
77287;SDS011;66345;42.694;23.346;2024-02-21T01:50:10;15.02;;;6.63;;
77287;SDS011;66345;42.694;23.346;2024-02-21T01:52:38;18.00;;;6.93;;
77287;SDS011;66345;42.694;23.346;2024-02-21T01:55:04;17.20;;;6.80;;
77287;SDS011;66345;42.694;23.346;2024-02-21T01:57:30;16.23;;;5.95;;
77287;SDS011;66345;42.694;23.346;2024-02-21T01:59:57;12.30;;;4.65;;
77287;SDS011;66345;42.694;23.346;2024-02-21T02:02:22;7.23;;;2.97;;
77287;SDS011;66345;42.694;23.346;2024-02-21T02:04:49;8.05;;;3.67;;
77287;SDS011;66345;42.694;23.346;2024-02-21T02:07:17;8.15;;;3.20;;
77287;SDS011;66345;42.694;23.346;2024-02-21T02:09:42;7.17;;;3.30;;
77287;SDS011;66345;42.694;23.346;2024-02-21T02:12:08;7.68;;;3.45;;
77287;SDS011;66345;42.694;23.346;2024-02-21T02:14:34;8.03;;;3.50;;
77287;SDS011;66345;42.694;23.346;2024-02-21T02:16:59;8.15;;;3.42;;
77287;SDS011;66345;42.694;23.346;2024-02-21T02:19:25;8.33;;;3.93;;
77287;SDS011;66345;42.694;23.346;2024-02-21T02:21:51;8.20;;;3.80;;
77287;SDS011;66345;42.694;23.346;2024-02-21T02:24:22;8.20;;;3.47;;
77287;SDS011;66345;42.694;23.346;2024-02-21T02:26:49;9.40;;;4.38;;
77287;SDS011;66345;42.694;23.346;2024-02-21T02:29:14;7.30;;;4.10;;
77287;SDS011;66345;42.694;23.346;2024-02-21T02:31:41;11.00;;;4.65;;
77287;SDS011;66345;42.694;23.346;2024-02-21T02:34:07;8.87;;;4.00;;
77287;SDS011;66345;42.694;23.346;2024-02-21T02:36:32;8.73;;;4.30;;
77287;SDS011;66345;42.694;23.346;2024-02-21T02:38:58;9.55;;;4.60;;
77287;SDS011;66345;42.694;23.346;2024-02-21T02:41:24;9.30;;;4.80;;
77287;SDS011;66345;42.694;23.346;2024-02-21T02:43:50;11.23;;;5.00;;
77287;SDS011;66345;42.694;23.346;2024-02-21T02:46:15;10.67;;;4.73;;
77287;SDS011;66345;42.694;23.346;2024-02-21T02:48:41;9.68;;;4.32;;
77287;SDS011;66345;42.694;23.346;2024-02-21T02:51:06;10.23;;;5.27;;
77287;SDS011;66345;42.694;23.346;2024-02-21T02:53:32;9.38;;;4.50;;
77287;SDS011;66345;42.694;23.346;2024-02-21T02:55:58;10.90;;;5.03;;
77287;SDS011;66345;42.694;23.346;2024-02-21T02:58:23;11.73;;;4.80;;
77287;SDS011;66345;42.694;23.346;2024-02-21T03:00:49;11.20;;;4.93;;
77287;SDS011;66345;42.694;23.346;2024-02-21T03:03:14;10.25;;;5.00;;
77287;SDS011;66345;42.694;23.346;2024-02-21T03:05:39;10.63;;;5.13;;
77287;SDS011;66345;42.694;23.346;2024-02-21T03:08:05;11.33;;;5.20;;
77287;SDS011;66345;42.694;23.346;2024-02-21T03:10:34;11.25;;;5.57;;
77287;SDS011;66345;42.694;23.346;2024-02-21T03:13:00;10.90;;;5.47;;
77287;SDS011;66345;42.694;23.346;2024-02-21T03:15:26;11.23;;;5.40;;
77287;SDS011;66345;42.694;23.346;2024-02-21T03:17:51;12.05;;;5.43;;
77287;SDS011;66345;42.694;23.346;2024-02-21T03:20:17;11.33;;;5.73;;
77287;SDS011;66345;42.694;23.346;2024-02-21T03:22:44;12.00;;;5.75;;
77287;SDS011;66345;42.694;23.346;2024-02-21T03:25:10;11.80;;;5.47;;
77287;SDS011;66345;42.694;23.346;2024-02-21T03:27:36;11.02;;;5.03;;
77287;SDS011;66345;42.694;23.346;2024-02-21T03:30:02;11.80;;;6.07;;
77287;SDS011;66345;42.694;23.346;2024-02-21T03:32:29;12.02;;;6.00;;
77287;SDS011;66345;42.694;23.346;2024-02-21T03:34:55;13.27;;;5.67;;
77287;SDS011;66345;42.694;23.346;2024-02-21T03:37:20;12.30;;;5.93;;
77287;SDS011;66345;42.694;23.346;2024-02-21T03:39:46;11.53;;;5.87;;
77287;SDS011;66345;42.694;23.346;2024-02-21T03:42:11;14.37;;;6.20;;
77287;SDS011;66345;42.694;23.346;2024-02-21T03:44:37;11.35;;;5.82;;
77287;SDS011;66345;42.694;23.346;2024-02-21T03:47:02;12.95;;;5.82;;
77287;SDS011;66345;42.694;23.346;2024-02-21T03:49:28;13.03;;;6.20;;
77287;SDS011;66345;42.694;23.346;2024-02-21T03:51:53;12.65;;;5.55;;
77287;SDS011;66345;42.694;23.346;2024-02-21T03:54:19;13.30;;;5.83;;
77287;SDS011;66345;42.694;23.346;2024-02-21T03:56:45;12.98;;;5.95;;
77287;SDS011;66345;42.694;23.346;2024-02-21T03:59:12;12.93;;;5.93;;
77287;SDS011;66345;42.694;23.346;2024-02-21T04:01:38;12.48;;;6.25;;
77287;SDS011;66345;42.694;23.346;2024-02-21T04:04:04;14.57;;;6.37;;
77287;SDS011;66345;42.694;23.346;2024-02-21T04:06:29;11.80;;;6.10;;
77287;SDS011;66345;42.694;23.346;2024-02-21T04:08:55;13.57;;;6.23;;
77287;SDS011;66345;42.694;23.346;2024-02-21T04:11:20;12.13;;;5.90;;
77287;SDS011;66345;42.694;23.346;2024-02-21T04:13:46;12.27;;;6.28;;
77287;SDS011;66345;42.694;23.346;2024-02-21T04:16:14;13.35;;;6.45;;
77287;SDS011;66345;42.694;23.346;2024-02-21T04:18:40;11.25;;;4.88;;
77287;SDS011;66345;42.694;23.346;2024-02-21T04:21:06;13.83;;;6.17;;
77287;SDS011;66345;42.694;23.346;2024-02-21T04:23:32;13.32;;;6.18;;
77287;SDS011;66345;42.694;23.346;2024-02-21T04:26:03;14.00;;;6.47;;
77287;SDS011;66345;42.694;23.346;2024-02-21T04:28:28;12.00;;;5.85;;
77287;SDS011;66345;42.694;23.346;2024-02-21T04:30:54;13.30;;;5.97;;
77287;SDS011;66345;42.694;23.346;2024-02-21T04:33:19;13.50;;;6.47;;
77287;SDS011;66345;42.694;23.346;2024-02-21T04:35:45;13.63;;;6.40;;
77287;SDS011;66345;42.694;23.346;2024-02-21T04:38:10;10.80;;;5.78;;
77287;SDS011;66345;42.694;23.346;2024-02-21T04:40:36;13.17;;;6.23;;
77287;SDS011;66345;42.694;23.346;2024-02-21T04:43:01;13.10;;;6.23;;
77287;SDS011;66345;42.694;23.346;2024-02-21T04:45:27;14.25;;;6.63;;
77287;SDS011;66345;42.694;23.346;2024-02-21T04:47:52;11.27;;;5.55;;
77287;SDS011;66345;42.694;23.346;2024-02-21T04:50:18;12.10;;;5.60;;
77287;SDS011;66345;42.694;23.346;2024-02-21T04:52:43;15.03;;;7.07;;
77287;SDS011;66345;42.694;23.346;2024-02-21T04:55:09;14.95;;;6.40;;
77287;SDS011;66345;42.694;23.346;2024-02-21T04:57:34;13.47;;;5.83;;
77287;SDS011;66345;42.694;23.346;2024-02-21T05:00:00;14.43;;;6.40;;
77287;SDS011;66345;42.694;23.346;2024-02-21T05:02:25;13.95;;;6.63;;
77287;SDS011;66345;42.694;23.346;2024-02-21T05:04:52;14.85;;;6.60;;
77287;SDS011;66345;42.694;23.346;2024-02-21T05:07:17;13.15;;;6.22;;
77287;SDS011;66345;42.694;23.346;2024-02-21T05:09:44;14.15;;;6.72;;
77287;SDS011;66345;42.694;23.346;2024-02-21T05:12:10;13.63;;;6.53;;
77287;SDS011;66345;42.694;23.346;2024-02-21T05:14:36;15.43;;;8.23;;
77287;SDS011;66345;42.694;23.346;2024-02-21T05:17:02;19.10;;;7.38;;
77287;SDS011;66345;42.694;23.346;2024-02-21T05:19:28;16.77;;;7.05;;
77287;SDS011;66345;42.694;23.346;2024-02-21T05:21:54;14.50;;;7.07;;
77287;SDS011;66345;42.694;23.346;2024-02-21T05:24:19;15.57;;;6.63;;
77287;SDS011;66345;42.694;23.346;2024-02-21T05:26:45;17.20;;;7.37;;
77287;SDS011;66345;42.694;23.346;2024-02-21T05:29:10;13.25;;;6.65;;
77287;SDS011;66345;42.694;23.346;2024-02-21T05:32:09;14.20;;;7.00;;
77287;SDS011;66345;42.694;23.346;2024-02-21T05:34:28;17.88;;;8.13;;
77287;SDS011;66345;42.694;23.346;2024-02-21T05:36:53;16.63;;;7.90;;
77287;SDS011;66345;42.694;23.346;2024-02-21T05:39:19;18.45;;;8.57;;
77287;SDS011;66345;42.694;23.346;2024-02-21T05:41:45;17.30;;;8.00;;
77287;SDS011;66345;42.694;23.346;2024-02-21T05:44:10;17.00;;;8.57;;
77287;SDS011;66345;42.694;23.346;2024-02-21T05:46:36;16.40;;;8.60;;
77287;SDS011;66345;42.694;23.346;2024-02-21T05:49:01;20.33;;;8.93;;
77287;SDS011;66345;42.694;23.346;2024-02-21T05:51:27;16.87;;;8.47;;
77287;SDS011;66345;42.694;23.346;2024-02-21T05:53:52;16.85;;;8.85;;
77287;SDS011;66345;42.694;23.346;2024-02-21T05:56:18;15.47;;;7.87;;
77287;SDS011;66345;42.694;23.346;2024-02-21T05:58:44;15.98;;;7.80;;
77287;SDS011;66345;42.694;23.346;2024-02-21T06:01:10;17.37;;;7.30;;
77287;SDS011;66345;42.694;23.346;2024-02-21T06:03:38;14.73;;;7.25;;
77287;SDS011;66345;42.694;23.346;2024-02-21T06:06:03;14.93;;;7.47;;
77287;SDS011;66345;42.694;23.346;2024-02-21T06:08:30;18.38;;;7.63;;
77287;SDS011;66345;42.694;23.346;2024-02-21T06:10:55;15.15;;;7.78;;
77287;SDS011;66345;42.694;23.346;2024-02-21T06:13:21;14.57;;;7.30;;
77287;SDS011;66345;42.694;23.346;2024-02-21T06:15:48;15.35;;;7.78;;
77287;SDS011;66345;42.694;23.346;2024-02-21T06:18:15;15.65;;;7.55;;
77287;SDS011;66345;42.694;23.346;2024-02-21T06:20:42;17.53;;;8.53;;
77287;SDS011;66345;42.694;23.346;2024-02-21T06:23:08;15.70;;;7.78;;
77287;SDS011;66345;42.694;23.346;2024-02-21T06:25:33;16.40;;;8.10;;
77287;SDS011;66345;42.694;23.346;2024-02-21T06:27:59;15.03;;;7.57;;
77287;SDS011;66345;42.694;23.346;2024-02-21T06:30:24;14.83;;;7.17;;
77287;SDS011;66345;42.694;23.346;2024-02-21T06:32:50;15.43;;;8.07;;
77287;SDS011;66345;42.694;23.346;2024-02-21T06:35:16;13.80;;;7.00;;
77287;SDS011;66345;42.694;23.346;2024-02-21T06:37:42;20.92;;;8.95;;
77287;SDS011;66345;42.694;23.346;2024-02-21T06:40:07;14.87;;;7.90;;
77287;SDS011;66345;42.694;23.346;2024-02-21T06:42:33;17.70;;;8.02;;
77287;SDS011;66345;42.694;23.346;2024-02-21T06:44:59;21.97;;;10.30;;
77287;SDS011;66345;42.694;23.346;2024-02-21T06:47:24;15.67;;;8.70;;
77287;SDS011;66345;42.694;23.346;2024-02-21T06:49:50;16.42;;;8.15;;
77287;SDS011;66345;42.694;23.346;2024-02-21T06:52:19;43.47;;;22.50;;
77287;SDS011;66345;42.694;23.346;2024-02-21T06:54:46;18.58;;;10.90;;
77287;SDS011;66345;42.694;23.346;2024-02-21T06:57:14;21.35;;;10.45;;
77287;SDS011;66345;42.694;23.346;2024-02-21T06:59:43;21.38;;;10.05;;
77287;SDS011;66345;42.694;23.346;2024-02-21T07:02:08;18.07;;;9.63;;
77287;SDS011;66345;42.694;23.346;2024-02-21T07:04:34;19.77;;;9.45;;
77287;SDS011;66345;42.694;23.346;2024-02-21T07:06:59;17.70;;;8.77;;
77287;SDS011;66345;42.694;23.346;2024-02-21T07:09:25;17.17;;;8.40;;
77287;SDS011;66345;42.694;23.346;2024-02-21T07:11:51;16.67;;;8.97;;
77287;SDS011;66345;42.694;23.346;2024-02-21T07:14:19;18.27;;;9.20;;
77287;SDS011;66345;42.694;23.346;2024-02-21T07:16:45;17.05;;;9.25;;
77287;SDS011;66345;42.694;23.346;2024-02-21T07:19:10;17.83;;;9.23;;
77287;SDS011;66345;42.694;23.346;2024-02-21T07:21:36;17.02;;;8.65;;
77287;SDS011;66345;42.694;23.346;2024-02-21T07:24:06;21.40;;;9.15;;
77287;SDS011;66345;42.694;23.346;2024-02-21T07:26:32;19.17;;;9.30;;
77287;SDS011;66345;42.694;23.346;2024-02-21T07:28:58;16.88;;;9.02;;
77287;SDS011;66345;42.694;23.346;2024-02-21T07:31:24;17.17;;;8.00;;
77287;SDS011;66345;42.694;23.346;2024-02-21T07:33:49;22.58;;;9.57;;
77287;SDS011;66345;42.694;23.346;2024-02-21T07:36:15;15.27;;;8.53;;
77287;SDS011;66345;42.694;23.346;2024-02-21T07:38:49;17.13;;;7.43;;
77287;SDS011;66345;42.694;23.346;2024-02-21T07:41:15;18.17;;;8.38;;
77287;SDS011;66345;42.694;23.346;2024-02-21T07:43:41;16.03;;;8.00;;
77287;SDS011;66345;42.694;23.346;2024-02-21T07:46:06;17.50;;;8.33;;
77287;SDS011;66345;42.694;23.346;2024-02-21T07:48:32;16.60;;;8.47;;
77287;SDS011;66345;42.694;23.346;2024-02-21T07:50:58;18.83;;;8.50;;
77287;SDS011;66345;42.694;23.346;2024-02-21T07:53:23;16.23;;;7.23;;
77287;SDS011;66345;42.694;23.346;2024-02-21T07:55:49;16.02;;;8.40;;
77287;SDS011;66345;42.694;23.346;2024-02-21T07:58:14;14.30;;;7.37;;
77287;SDS011;66345;42.694;23.346;2024-02-21T08:00:40;14.00;;;7.57;;
77287;SDS011;66345;42.694;23.346;2024-02-21T08:03:05;15.75;;;7.55;;
77287;SDS011;66345;42.694;23.346;2024-02-21T08:05:33;15.55;;;8.10;;
77287;SDS011;66345;42.694;23.346;2024-02-21T08:07:59;14.68;;;7.53;;
77287;SDS011;66345;42.694;23.346;2024-02-21T08:10:27;14.93;;;7.83;;
77287;SDS011;66345;42.694;23.346;2024-02-21T08:12:53;16.20;;;8.10;;
77287;SDS011;66345;42.694;23.346;2024-02-21T08:15:18;14.83;;;7.80;;
77287;SDS011;66345;42.694;23.346;2024-02-21T08:17:44;13.97;;;7.70;;
77287;SDS011;66345;42.694;23.346;2024-02-21T08:20:09;14.95;;;8.32;;
77287;SDS011;66345;42.694;23.346;2024-02-21T08:22:37;15.53;;;7.80;;
77287;SDS011;66345;42.694;23.346;2024-02-21T08:25:03;16.90;;;8.30;;
77287;SDS011;66345;42.694;23.346;2024-02-21T08:27:30;16.10;;;8.15;;
77287;SDS011;66345;42.694;23.346;2024-02-21T08:29:56;16.93;;;8.13;;
77287;SDS011;66345;42.694;23.346;2024-02-21T08:32:21;15.60;;;8.40;;
77287;SDS011;66345;42.694;23.346;2024-02-21T08:34:47;14.83;;;7.90;;
77287;SDS011;66345;42.694;23.346;2024-02-21T08:37:12;20.07;;;8.80;;
77287;SDS011;66345;42.694;23.346;2024-02-21T08:39:38;12.50;;;8.00;;
77287;SDS011;66345;42.694;23.346;2024-02-21T08:42:04;15.87;;;8.50;;
77287;SDS011;66345;42.694;23.346;2024-02-21T08:44:30;14.88;;;8.27;;
77287;SDS011;66345;42.694;23.346;2024-02-21T08:46:55;14.07;;;7.67;;
77287;SDS011;66345;42.694;23.346;2024-02-21T08:49:21;14.30;;;7.93;;
77287;SDS011;66345;42.694;23.346;2024-02-21T08:51:47;15.20;;;8.23;;
77287;SDS011;66345;42.694;23.346;2024-02-21T08:54:12;17.20;;;8.10;;
77287;SDS011;66345;42.694;23.346;2024-02-21T08:56:38;14.30;;;7.88;;
77287;SDS011;66345;42.694;23.346;2024-02-21T08:59:03;12.20;;;6.90;;
77287;SDS011;66345;42.694;23.346;2024-02-21T09:01:29;12.87;;;7.40;;
77287;SDS011;66345;42.694;23.346;2024-02-21T09:03:54;12.35;;;7.50;;
77287;SDS011;66345;42.694;23.346;2024-02-21T09:06:21;14.37;;;7.10;;
77287;SDS011;66345;42.694;23.346;2024-02-21T09:08:47;15.52;;;7.72;;
77287;SDS011;66345;42.694;23.346;2024-02-21T09:11:13;14.57;;;7.13;;
77287;SDS011;66345;42.694;23.346;2024-02-21T09:13:38;15.30;;;7.07;;
77287;SDS011;66345;42.694;23.346;2024-02-21T09:16:04;13.00;;;6.70;;
77287;SDS011;66345;42.694;23.346;2024-02-21T09:18:31;13.77;;;6.72;;
77287;SDS011;66345;42.694;23.346;2024-02-21T09:20:56;17.07;;;7.20;;
77287;SDS011;66345;42.694;23.346;2024-02-21T09:23:23;11.50;;;6.60;;
77287;SDS011;66345;42.694;23.346;2024-02-21T09:25:49;13.73;;;7.53;;
77287;SDS011;66345;42.694;23.346;2024-02-21T09:28:15;15.05;;;8.07;;
77287;SDS011;66345;42.694;23.346;2024-02-21T09:30:40;16.73;;;9.83;;
77287;SDS011;66345;42.694;23.346;2024-02-21T09:33:06;12.77;;;7.40;;
77287;SDS011;66345;42.694;23.346;2024-02-21T09:35:31;14.13;;;7.05;;
77287;SDS011;66345;42.694;23.346;2024-02-21T09:37:58;22.42;;;11.65;;
77287;SDS011;66345;42.694;23.346;2024-02-21T09:40:24;11.85;;;7.38;;
77287;SDS011;66345;42.694;23.346;2024-02-21T09:42:50;12.10;;;8.02;;
77287;SDS011;66345;42.694;23.346;2024-02-21T09:45:34;13.10;;;7.50;;
77287;SDS011;66345;42.694;23.346;2024-02-21T09:48:11;11.87;;;6.40;;
77287;SDS011;66345;42.694;23.346;2024-02-21T09:50:40;13.25;;;7.65;;
77287;SDS011;66345;42.694;23.346;2024-02-21T09:53:06;12.27;;;7.50;;
77287;SDS011;66345;42.694;23.346;2024-02-21T09:55:35;13.47;;;7.83;;
77287;SDS011;66345;42.694;23.346;2024-02-21T09:58:05;14.57;;;6.75;;
77287;SDS011;66345;42.694;23.346;2024-02-21T10:00:31;13.65;;;7.38;;
77287;SDS011;66345;42.694;23.346;2024-02-21T10:02:56;13.67;;;7.83;;
77287;SDS011;66345;42.694;23.346;2024-02-21T10:05:26;10.57;;;6.93;;
77287;SDS011;66345;42.694;23.346;2024-02-21T10:07:52;11.32;;;6.78;;
77287;SDS011;66345;42.694;23.346;2024-02-21T10:10:19;13.00;;;7.53;;
77287;SDS011;66345;42.694;23.346;2024-02-21T10:12:50;11.13;;;6.90;;
77287;SDS011;66345;42.694;23.346;2024-02-21T10:15:23;11.32;;;6.60;;
77287;SDS011;66345;42.694;23.346;2024-02-21T10:17:50;13.68;;;7.22;;
77287;SDS011;66345;42.694;23.346;2024-02-21T10:20:24;12.98;;;6.78;;
77287;SDS011;66345;42.694;23.346;2024-02-21T10:22:59;11.30;;;7.00;;
77287;SDS011;66345;42.694;23.346;2024-02-21T10:25:27;9.23;;;5.65;;
77287;SDS011;66345;42.694;23.346;2024-02-21T10:27:53;10.77;;;6.13;;
77287;SDS011;66345;42.694;23.346;2024-02-21T10:30:18;11.75;;;5.70;;
77287;SDS011;66345;42.694;23.346;2024-02-21T10:32:54;11.63;;;6.40;;
77287;SDS011;66345;42.694;23.346;2024-02-21T10:35:27;12.88;;;6.63;;
77287;SDS011;66345;42.694;23.346;2024-02-21T10:37:57;9.32;;;5.63;;
77287;SDS011;66345;42.694;23.346;2024-02-21T10:40:24;9.48;;;5.10;;
77287;SDS011;66345;42.694;23.346;2024-02-21T10:42:56;8.63;;;4.60;;
77287;SDS011;66345;42.694;23.346;2024-02-21T10:45:32;9.03;;;4.97;;
77287;SDS011;66345;42.694;23.346;2024-02-21T10:48:22;9.43;;;5.18;;
77287;SDS011;66345;42.694;23.346;2024-02-21T10:51:24;8.32;;;5.18;;
77287;SDS011;66345;42.694;23.346;2024-02-21T10:56:40;9.38;;;5.05;;
77287;SDS011;66345;42.694;23.346;2024-02-21T10:59:07;13.53;;;5.23;;
77287;SDS011;66345;42.694;23.346;2024-02-21T11:01:33;8.98;;;5.13;;
77287;SDS011;66345;42.694;23.346;2024-02-21T11:04:07;6.55;;;3.83;;
77287;SDS011;66345;42.694;23.346;2024-02-21T11:06:36;8.57;;;4.38;;
77287;SDS011;66345;42.694;23.346;2024-02-21T11:09:04;9.15;;;4.50;;
77287;SDS011;66345;42.694;23.346;2024-02-21T11:11:35;7.43;;;3.87;;
77287;SDS011;66345;42.694;23.346;2024-02-21T11:14:05;7.60;;;4.10;;
77287;SDS011;66345;42.694;23.346;2024-02-21T11:16:38;6.57;;;3.60;;
77287;SDS011;66345;42.694;23.346;2024-02-21T11:19:05;9.50;;;4.45;;
77287;SDS011;66345;42.694;23.346;2024-02-21T11:21:35;6.70;;;3.30;;
77287;SDS011;66345;42.694;23.346;2024-02-21T11:24:01;6.67;;;3.10;;
77287;SDS011;66345;42.694;23.346;2024-02-21T11:26:30;5.78;;;3.03;;
77287;SDS011;66345;42.694;23.346;2024-02-21T11:28:57;5.72;;;2.90;;
77287;SDS011;66345;42.694;23.346;2024-02-21T11:31:24;7.40;;;2.80;;
77287;SDS011;66345;42.694;23.346;2024-02-21T11:33:52;6.15;;;3.03;;
77287;SDS011;66345;42.694;23.346;2024-02-21T11:36:25;5.70;;;2.37;;
77287;SDS011;66345;42.694;23.346;2024-02-21T11:38:51;4.90;;;2.05;;
77287;SDS011;66345;42.694;23.346;2024-02-21T11:41:18;6.55;;;3.17;;
77287;SDS011;66345;42.694;23.346;2024-02-21T11:43:46;5.75;;;2.78;;
77287;SDS011;66345;42.694;23.346;2024-02-21T11:46:15;4.78;;;2.40;;
77287;SDS011;66345;42.694;23.346;2024-02-21T11:48:41;9.37;;;4.17;;
77287;SDS011;66345;42.694;23.346;2024-02-21T11:51:09;7.00;;;2.80;;
77287;SDS011;66345;42.694;23.346;2024-02-21T11:53:35;6.87;;;3.07;;
77287;SDS011;66345;42.694;23.346;2024-02-21T11:56:00;7.32;;;3.30;;
77287;SDS011;66345;42.694;23.346;2024-02-21T11:58:26;8.02;;;3.20;;
77287;SDS011;66345;42.694;23.346;2024-02-21T12:00:52;10.13;;;3.70;;
77287;SDS011;66345;42.694;23.346;2024-02-21T12:03:17;5.95;;;3.20;;
77287;SDS011;66345;42.694;23.346;2024-02-21T12:05:43;6.23;;;2.90;;
77287;SDS011;66345;42.694;23.346;2024-02-21T12:08:09;10.93;;;3.80;;
77287;SDS011;66345;42.694;23.346;2024-02-21T12:10:35;6.93;;;3.40;;
77287;SDS011;66345;42.694;23.346;2024-02-21T12:13:10;13.05;;;4.43;;
77287;SDS011;66345;42.694;23.346;2024-02-21T12:15:38;8.60;;;4.40;;
77287;SDS011;66345;42.694;23.346;2024-02-21T12:18:05;7.90;;;3.93;;
77287;SDS011;66345;42.694;23.346;2024-02-21T12:20:30;8.02;;;3.60;;
77287;SDS011;66345;42.694;23.346;2024-02-21T12:22:59;8.80;;;4.10;;
77287;SDS011;66345;42.694;23.346;2024-02-21T12:25:25;9.40;;;3.93;;
77287;SDS011;66345;42.694;23.346;2024-02-21T12:27:52;9.15;;;3.63;;
77287;SDS011;66345;42.694;23.346;2024-02-21T12:30:18;7.85;;;3.83;;
77287;SDS011;66345;42.694;23.346;2024-02-21T12:32:44;6.87;;;3.87;;
77287;SDS011;66345;42.694;23.346;2024-02-21T12:35:13;7.45;;;3.05;;
77287;SDS011;66345;42.694;23.346;2024-02-21T12:37:39;8.00;;;3.90;;
77287;SDS011;66345;42.694;23.346;2024-02-21T12:40:05;9.90;;;3.77;;
77287;SDS011;66345;42.694;23.346;2024-02-21T12:42:32;7.55;;;3.95;;
77287;SDS011;66345;42.694;23.346;2024-02-21T12:44:58;9.60;;;3.85;;
77287;SDS011;66345;42.694;23.346;2024-02-21T12:47:24;10.73;;;4.60;;
77287;SDS011;66345;42.694;23.346;2024-02-21T12:49:51;8.68;;;3.88;;
77287;SDS011;66345;42.694;23.346;2024-02-21T12:52:17;9.52;;;4.10;;
77287;SDS011;66345;42.694;23.346;2024-02-21T12:54:43;12.32;;;6.05;;
77287;SDS011;66345;42.694;23.346;2024-02-21T12:57:09;10.03;;;4.67;;
77287;SDS011;66345;42.694;23.346;2024-02-21T12:59:35;9.93;;;5.33;;
77287;SDS011;66345;42.694;23.346;2024-02-21T13:02:00;10.85;;;4.95;;
77287;SDS011;66345;42.694;23.346;2024-02-21T13:04:26;9.37;;;5.00;;
77287;SDS011;66345;42.694;23.346;2024-02-21T13:06:51;8.20;;;4.53;;
77287;SDS011;66345;42.694;23.346;2024-02-21T13:09:17;9.97;;;5.27;;
77287;SDS011;66345;42.694;23.346;2024-02-21T13:11:43;9.45;;;4.90;;
77287;SDS011;66345;42.694;23.346;2024-02-21T13:14:11;8.60;;;4.53;;
77287;SDS011;66345;42.694;23.346;2024-02-21T13:16:37;8.95;;;4.85;;
77287;SDS011;66345;42.694;23.346;2024-02-21T13:19:06;9.07;;;4.60;;
77287;SDS011;66345;42.694;23.346;2024-02-21T13:21:33;9.68;;;5.15;;
77287;SDS011;66345;42.694;23.346;2024-02-21T13:23:59;10.27;;;5.50;;
77287;SDS011;66345;42.694;23.346;2024-02-21T13:26:25;9.23;;;5.23;;
77287;SDS011;66345;42.694;23.346;2024-02-21T13:28:50;9.65;;;4.80;;
77287;SDS011;66345;42.694;23.346;2024-02-21T13:31:16;9.43;;;4.10;;
77287;SDS011;66345;42.694;23.346;2024-02-21T13:33:41;8.13;;;4.20;;
77287;SDS011;66345;42.694;23.346;2024-02-21T13:36:09;7.78;;;4.20;;
77287;SDS011;66345;42.694;23.346;2024-02-21T13:38:35;7.88;;;4.35;;
77287;SDS011;66345;42.694;23.346;2024-02-21T13:41:00;8.33;;;4.30;;
77287;SDS011;66345;42.694;23.346;2024-02-21T13:43:26;9.70;;;4.53;;
77287;SDS011;66345;42.694;23.346;2024-02-21T13:45:58;8.32;;;4.05;;
77287;SDS011;66345;42.694;23.346;2024-02-21T13:48:26;9.47;;;4.40;;
77287;SDS011;66345;42.694;23.346;2024-02-21T13:50:55;7.88;;;4.55;;
77287;SDS011;66345;42.694;23.346;2024-02-21T13:53:20;10.63;;;4.63;;
77287;SDS011;66345;42.694;23.346;2024-02-21T13:55:47;9.45;;;5.00;;
77287;SDS011;66345;42.694;23.346;2024-02-21T13:58:15;9.47;;;4.20;;
77287;SDS011;66345;42.694;23.346;2024-02-21T14:00:41;8.82;;;4.60;;
77287;SDS011;66345;42.694;23.346;2024-02-21T14:03:06;9.55;;;4.22;;
77287;SDS011;66345;42.694;23.346;2024-02-21T14:05:32;10.10;;;5.30;;
77287;SDS011;66345;42.694;23.346;2024-02-21T14:07:57;8.57;;;4.40;;
77287;SDS011;66345;42.694;23.346;2024-02-21T14:10:23;9.97;;;4.57;;
77287;SDS011;66345;42.694;23.346;2024-02-21T14:12:48;10.57;;;5.25;;
77287;SDS011;66345;42.694;23.346;2024-02-21T14:15:14;11.57;;;4.70;;
77287;SDS011;66345;42.694;23.346;2024-02-21T14:17:41;9.02;;;3.65;;
77287;SDS011;66345;42.694;23.346;2024-02-21T14:20:07;10.65;;;3.45;;
77287;SDS011;66345;42.694;23.346;2024-02-21T14:22:33;7.78;;;3.80;;
77287;SDS011;66345;42.694;23.346;2024-02-21T14:24:59;9.60;;;4.93;;